Time;durP1;ratioP1;P1;durP2;ratioP2;P2;SDS_P1;SDS_P2;PMS_P1;PMS_P2;Temp;Humidity;BMP_temperature;BMP_pressure;BME280_temperature;BME280_humidity;BME280_pressure;Samples;Min_cycle;Max_cycle;Signal;HPM_P1;HPM_P2
2022/09/30 15:57:50;;;;;;;1.40;1.30;;;;;;;20.82;73.54;98756.09;5055729;28;20378;-82
2022/09/30 16:00:34;;;;;;;1.73;1.25;;;;;;;21.38;71.97;98771.88;5062794;28;20528;-83
2022/09/30 16:03:35;;;;;;;2.03;1.50;;;;;;;21.66;70.92;98771.91;5051950;28;20060;-84
2022/09/30 16:06:06;;;;;;;2.03;1.40;;;;;;;21.32;72.47;98771.09;5004324;28;20049;-84
2022/09/30 16:08:40;;;;;;;3.75;1.65;;;;;;;21.14;73.40;98774.34;5032462;28;20127;-84
2022/09/30 16:11:06;;;;;;;1.70;1.60;;;;;;;21.33;74.87;98778.25;5039416;28;20025;-84
2022/09/30 16:13:33;;;;;;;2.65;1.30;;;;;;;21.40;74.44;98774.16;5044617;28;20025;-83
2022/09/30 16:16:00;;;;;;;3.00;1.20;;;;;;;21.58;73.24;98765.22;5058368;28;20044;-87
2022/09/30 16:18:29;;;;;;;4.78;1.15;;;;;;;21.59;71.73;98743.50;5051575;28;20212;-84
2022/09/30 16:21:00;;;;;;;2.22;1.38;;;;;;;21.84;71.85;98807.97;5068647;28;20036;-83
2022/09/30 16:23:34;;;;;;;1.42;1.17;;;;;;;21.72;71.78;98767.03;5067485;28;20079;-84
2022/09/30 16:26:32;;;;;;;2.03;1.38;;;;;;;21.74;71.73;98798.25;5040738;28;20512;-84
2022/09/30 16:29:02;;;;;;;2.13;1.55;;;;;;;21.78;71.42;98804.38;5018643;28;20062;-86
2022/09/30 16:31:29;;;;;;;1.77;1.10;;;;;;;-143.85;100.00;70650.75;5046373;28;20029;-85
2022/09/30 16:33:54;;;;;;;1.30;1.20;;;;;;;-143.85;100.00;70650.75;5064366;28;20036;-83
2022/09/30 16:36:20;;;;;;;3.28;1.48;;;;;;;-143.85;100.00;70650.75;5069479;28;20396;-85
2022/09/30 16:38:45;;;;;;;9.35;1.50;;;;;;;-143.85;100.00;70650.75;5068534;28;20029;-83
2022/09/30 16:41:12;;;;;;;6.43;1.65;;;;;;;-143.85;100.00;70650.75;5041689;28;20021;-84
2022/09/30 16:43:38;;;;;;;2.08;1.88;;;;;;;-143.85;100.00;70650.75;5037734;28;20029;-84
2022/09/30 16:46:04;;;;;;;1.40;1.20;;;;;;;-143.85;100.00;70650.75;5059716;28;20110;-85
2022/09/30 16:48:29;;;;;;;1.65;1.08;;;;;;;-143.85;100.00;70650.75;5048892;28;20032;-86
2022/09/30 16:51:02;;;;;;;2.05;1.65;;;;;;;-143.85;100.00;70650.75;5035511;28;20025;-85
2022/09/30 16:53:28;;;;;;;5.10;2.78;;;;;;;-143.85;100.00;70650.75;5040045;28;20029;-85
2022/09/30 16:55:53;;;;;;;2.80;2.28;;;;;;;-143.85;100.00;70650.75;5049600;28;20060;-87
2022/09/30 16:58:19;;;;;;;1.58;1.17;;;;;;;-143.85;100.00;70650.75;5041846;28;20086;-87
2022/09/30 17:00:45;;;;;;;2.63;1.20;;;;;;;-143.85;100.00;70650.75;5048110;28;20033;-85
2022/09/30 17:03:14;;;;;;;1.83;1.23;;;;;;;-143.85;100.00;70650.75;5048404;28;20029;-87
2022/09/30 17:05:41;;;;;;;3.50;1.40;;;;;;;-143.85;100.00;70650.75;5036295;28;20152;-86
2022/09/30 17:08:15;;;;;;;2.03;1.67;;;;;;;-143.85;100.00;70650.75;5039966;28;20469;-83
2022/09/30 17:10:42;;;;;;;1.67;1.05;;;;;;;-143.85;100.00;70650.75;5035642;28;20034;-83
2022/09/30 17:13:08;;;;;;;1.83;1.20;;;;;;;-143.85;100.00;70650.75;5022130;28;20481;-83
2022/09/30 17:15:37;;;;;;;0.90;0.85;;;;;;;-143.85;100.00;70650.75;5021270;28;20053;-85
2022/09/30 17:18:07;;;;;;;1.45;1.25;;;;;;;-143.85;100.00;70650.75;5029625;28;20041;-85
2022/09/30 17:20:34;;;;;;;4.10;1.15;;;;;;;-143.85;100.00;70650.75;5024507;28;20040;-84
2022/09/30 17:22:59;;;;;;;4.43;1.27;;;;;;;-143.85;100.00;70650.75;5033496;28;20022;-84
2022/09/30 17:25:25;;;;;;;1.35;0.80;;;;;;;-143.85;100.00;70650.75;5021543;28;20478;-83
2022/09/30 17:27:50;;;;;;;1.10;1.00;;;;;;;-143.85;100.00;70650.75;5030097;28;20030;-85
2022/09/30 17:30:16;;;;;;;2.08;1.80;;;;;;;-143.85;100.00;70650.75;5033768;28;20021;-84
2022/09/30 17:32:43;;;;;;;4.97;2.63;;;;;;;-143.85;100.00;70650.75;5031349;28;20037;-83
2022/09/30 17:35:09;;;;;;;2.08;1.55;;;;;;;-143.85;100.00;70650.75;5041990;28;20078;-83
2022/09/30 17:37:35;;;;;;;2.85;1.08;;;;;;;-143.85;100.00;70650.75;5043348;28;20033;-83
2022/09/30 17:43:06;;;;;;;1.38;1.27;;;;;;;-143.85;100.00;70650.75;5031056;28;20030;-83
2022/09/30 17:43:06;;;;;;;8.18;4.43;;;;;;;-143.85;100.00;70650.75;5035647;28;20033;-82
2022/09/30 17:45:31;;;;;;;4.35;2.72;;;;;;;-143.85;100.00;70650.75;5028231;28;20065;-83
2022/09/30 17:47:57;;;;;;;7.78;2.65;;;;;;;-143.85;100.00;70650.75;5018243;28;20064;-83
2022/09/30 17:50:23;;;;;;;4.47;1.63;;;;;;;-143.85;100.00;70650.75;5031374;28;20037;-83
2022/09/30 17:52:48;;;;;;;1.80;0.98;;;;;;;-143.85;100.00;70650.75;5026780;28;20026;-84
2022/09/30 17:55:14;;;;;;;5.38;1.30;;;;;;;-143.85;100.00;70650.75;5024874;28;20025;-84
2022/09/30 17:57:39;;;;;;;5.78;1.58;;;;;;;-143.85;100.00;70650.75;5025157;28;20448;-85
2022/09/30 18:00:05;;;;;;;1.30;1.10;;;;;;;-143.85;100.00;70650.75;5025825;28;20021;-83
2022/09/30 18:02:31;;;;;;;4.05;0.90;;;;;;;-143.85;100.00;70650.75;5026808;28;20041;-86
2022/09/30 18:04:58;;;;;;;4.55;1.13;;;;;;;-143.85;100.00;70650.75;5023081;28;20072;-84
2022/09/30 18:07:26;;;;;;;1.80;0.85;;;;;;;-143.85;100.00;70650.75;5019832;28;20026;-85
2022/09/30 18:09:51;;;;;;;1.10;0.90;;;;;;;-143.85;100.00;70650.75;5023050;28;20180;-85
2022/09/30 18:12:17;;;;;;;3.60;1.35;;;;;;;-143.85;100.00;70650.75;5031066;28;20116;-83
2022/09/30 18:14:42;;;;;;;1.50;0.95;;;;;;;-143.85;100.00;70650.75;5032960;28;20501;-85
2022/09/30 18:17:08;;;;;;;2.03;1.10;;;;;;;-143.85;100.00;70650.75;5034029;28;20529;-83
2022/09/30 18:19:34;;;;;;;1.92;1.23;;;;;;;-143.85;100.00;70650.75;5023514;28;20041;-83
2022/09/30 18:22:01;;;;;;;1.90;1.40;;;;;;;-143.85;100.00;70650.75;5029150;28;20034;-86
2022/09/30 18:27:11;;;;;;;2.30;1.33;;;;;;;-143.85;100.00;70650.75;5029444;28;20036;-83
2022/09/30 18:29:40;;;;;;;1.08;1.02;;;;;;;-143.85;100.00;70650.75;5043178;28;20119;-83
2022/09/30 18:32:05;;;;;;;2.03;1.45;;;;;;;-143.85;100.00;70650.75;5052573;28;20500;-84
2022/09/30 18:34:33;;;;;;;4.63;1.10;;;;;;;-143.85;100.00;70650.75;5052548;28;20044;-83
2022/09/30 18:37:05;;;;;;;1.08;0.60;;;;;;;-143.85;100.00;70650.75;5051269;28;20496;-83
2022/09/30 18:39:33;;;;;;;1.17;0.93;;;;;;;-143.85;100.00;70650.75;5027619;28;20037;-85
2022/09/30 18:41:59;;;;;;;0.80;0.80;;;;;;;-143.85;100.00;70650.75;5027644;28;20033;-85
2022/09/30 18:44:26;;;;;;;1.00;0.88;;;;;;;-143.85;100.00;70650.75;5024748;28;20412;-83
2022/09/30 18:46:54;;;;;;;0.95;0.90;;;;;;;-143.85;100.00;70650.75;5022998;28;20576;-84
2022/09/30 18:49:21;;;;;;;1.27;1.10;;;;;;;-143.85;100.00;70650.75;5025624;28;20022;-84
2022/09/30 18:51:47;;;;;;;5.78;1.08;;;;;;;-143.85;100.00;70650.75;5041003;28;20121;-85
2022/09/30 18:54:14;;;;;;;2.30;1.10;;;;;;;-143.85;100.00;70650.75;5023294;28;20030;-84
2022/09/30 18:56:42;;;;;;;1.07;0.80;;;;;;;-143.85;100.00;70650.75;5026537;28;20049;-85
2022/09/30 18:59:13;;;;;;;;;;;;;;;-143.85;100.00;70650.75;5027740;28;20083;-92
2022/09/30 19:01:38;;;;;;;1.00;0.90;;;;;;;-143.85;100.00;70650.75;5024105;28;19909;-93
2022/09/30 19:04:04;;;;;;;1.65;0.95;;;;;;;-143.85;100.00;70650.75;5029857;28;20033;-93
2022/09/30 19:06:29;;;;;;;0.73;0.73;;;;;;;-143.85;100.00;70650.75;5021506;28;20600;-92
2022/09/30 19:08:55;;;;;;;1.95;0.88;;;;;;;-143.85;100.00;70650.75;5045623;28;20055;-93
2022/09/30 19:11:21;;;;;;;4.22;1.02;;;;;;;-143.85;100.00;70650.75;5039823;28;20485;-94
2022/09/30 19:13:50;;;;;;;0.90;0.90;;;;;;;-143.85;100.00;70650.75;5042042;28;20029;-93
2022/09/30 19:16:17;;;;;;;3.08;1.30;;;;;;;-143.85;100.00;70650.75;5032434;28;20037;-92
2022/09/30 19:18:43;;;;;;;0.82;0.82;;;;;;;-143.85;100.00;70650.75;5035539;28;20018;-84
2022/09/30 19:21:10;;;;;;;1.48;0.93;;;;;;;-143.85;100.00;70650.75;5029753;28;20033;-84
2022/09/30 19:23:37;;;;;;;0.75;0.75;;;;;;;-143.85;100.00;70650.75;5053268;28;20029;-94
2022/09/30 19:26:03;;;;;;;1.77;1.17;;;;;;;-143.85;100.00;70650.75;5030934;28;20037;-87
2022/09/30 19:28:36;;;;;;;1.05;0.93;;;;;;;-143.85;100.00;70650.75;5025607;28;20026;-87
2022/09/30 19:31:11;;;;;;;0.90;0.85;;;;;;;-143.85;100.00;70650.75;5024902;28;20056;-88
2022/09/30 19:33:47;;;;;;;2.10;0.85;;;;;;;-143.85;100.00;70650.75;5019246;28;20030;-87
2022/09/30 19:36:14;;;;;;;1.20;1.10;;;;;;;-143.85;100.00;70650.75;5030203;28;20026;-87
2022/09/30 19:38:41;;;;;;;1.40;1.30;;;;;;;-143.85;100.00;70650.75;5019755;28;20470;-88
2022/09/30 19:41:08;;;;;;;2.60;1.13;;;;;;;-143.85;100.00;70650.75;5012055;28;20057;-89
2022/09/30 19:43:40;;;;;;;1.15;0.90;;;;;;;-143.85;100.00;70650.75;5027271;28;20022;-92
2022/09/30 19:46:07;;;;;;;1.17;0.88;;;;;;;-143.85;100.00;70650.75;5026421;28;20493;-92
2022/09/30 19:48:37;;;;;;;0.70;0.70;;;;;;;-143.85;100.00;70650.75;5021670;28;20038;-91
2022/09/30 19:51:05;;;;;;;2.03;1.05;;;;;;;-143.85;100.00;70650.75;5031733;28;20029;-93
2022/09/30 19:53:32;;;;;;;1.52;1.40;;;;;;;-143.85;100.00;70650.75;5016760;28;20033;-92
2022/09/30 19:56:05;;;;;;;1.60;1.00;;;;;;;-143.85;100.00;70650.75;5020112;28;20411;-92
2022/09/30 19:58:35;;;;;;;2.40;1.15;;;;;;;-143.85;100.00;70650.75;5028556;28;20168;-92
2022/09/30 20:01:01;;;;;;;5.15;1.10;;;;;;;-143.85;100.00;70650.75;5028136;28;20036;-87
2022/09/30 20:03:29;;;;;;;1.75;1.50;;;;;;;-143.85;100.00;70650.75;5023987;28;20025;-89
2022/09/30 20:06:02;;;;;;;1.67;1.45;;;;;;;-143.85;100.00;70650.75;5024408;28;20032;-89
2022/09/30 20:08:33;;;;;;;1.15;1.05;;;;;;;-143.85;100.00;70650.75;5026166;28;20547;-90
2022/09/30 20:11:04;;;;;;;1.30;1.10;;;;;;;-143.85;100.00;70650.75;5026314;28;20028;-90
2022/09/30 20:13:30;;;;;;;1.30;1.00;;;;;;;-143.85;100.00;70650.75;5040095;28;20643;-89
2022/09/30 20:16:00;;;;;;;2.15;1.20;;;;;;;-143.85;100.00;70650.75;5021798;28;20018;-90
2022/09/30 20:18:26;;;;;;;2.30;1.08;;;;;;;-143.85;100.00;70650.75;5021112;28;20040;-89
2022/09/30 20:20:52;;;;;;;1.52;1.00;;;;;;;-143.85;100.00;70650.75;5042244;28;20029;-89
2022/09/30 20:23:21;;;;;;;2.08;1.15;;;;;;;-143.85;100.00;70650.75;5046764;28;20026;-89
2022/09/30 20:25:50;;;;;;;1.35;1.10;;;;;;;-143.85;100.00;70650.75;5032017;28;20567;-90
2022/09/30 20:28:16;;;;;;;3.40;2.08;;;;;;;-143.85;100.00;70650.75;5023319;28;20040;-88
2022/09/30 20:30:45;;;;;;;2.72;1.30;;;;;;;-143.85;100.00;70650.75;5031828;28;20420;-89
2022/09/30 20:33:14;;;;;;;;;;;;;;;-143.85;100.00;70650.75;5032163;28;20037;-89
2022/09/30 20:35:40;;;;;;;1.55;1.20;;;;;;;-143.85;100.00;70650.75;5031812;28;20011;-88
2022/09/30 20:38:10;;;;;;;1.17;1.08;;;;;;;-143.85;100.00;70650.75;5031672;28;21802;-90
2022/09/30 20:40:36;;;;;;;1.63;1.17;;;;;;;-143.85;100.00;70650.75;5040924;28;20502;-88
2022/09/30 20:43:02;;;;;;;1.70;1.60;;;;;;;-143.85;100.00;70650.75;5052696;28;20037;-88
2022/09/30 20:45:28;;;;;;;3.38;1.30;;;;;;;-143.85;100.00;70650.75;5055200;28;20573;-89
2022/09/30 20:47:55;;;;;;;2.08;1.13;;;;;;;-143.85;100.00;70650.75;5050696;28;20021;-88
2022/09/30 20:50:33;;;;;;;3.60;1.63;;;;;;;-143.85;100.00;70650.75;5041806;28;20029;-88
2022/09/30 20:53:08;;;;;;;1.80;1.40;;;;;;;-143.85;100.00;70650.75;5022875;28;20398;-87
2022/09/30 20:55:36;;;;;;;10.88;2.17;;;;;;;-143.85;100.00;70650.75;5032362;28;20494;-90
2022/09/30 20:58:02;;;;;;;1.20;1.10;;;;;;;-143.85;100.00;70650.75;5055254;28;20025;-91
2022/09/30 21:00:29;;;;;;;2.70;1.70;;;;;;;-143.85;100.00;70650.75;5055082;28;20037;-91
2022/09/30 21:02:56;;;;;;;0.90;0.90;;;;;;;-143.85;100.00;70650.75;5048046;28;20025;-89
2022/09/30 21:05:21;;;;;;;2.60;1.33;;;;;;;-143.85;100.00;70650.75;5037559;28;20033;-89
2022/09/30 21:07:47;;;;;;;3.65;1.38;;;;;;;-143.85;100.00;70650.75;5037887;28;20014;-89
2022/09/30 21:10:12;;;;;;;4.25;1.13;;;;;;;-143.85;100.00;70650.75;5034878;28;20459;-90
2022/09/30 21:12:38;;;;;;;1.08;0.93;;;;;;;-143.85;100.00;70650.75;5035635;28;20481;-88
2022/09/30 21:15:03;;;;;;;1.17;1.08;;;;;;;-143.85;100.00;70650.75;5035268;28;20029;-90
2022/09/30 21:17:30;;;;;;;1.35;1.13;;;;;;;-143.85;100.00;70650.75;5043358;28;20405;-90
2022/09/30 21:19:55;;;;;;;1.33;1.17;;;;;;;-143.85;100.00;70650.75;5022929;28;20043;-90
2022/09/30 21:22:21;;;;;;;1.33;1.23;;;;;;;-143.85;100.00;70650.75;5039389;28;20140;-89
2022/09/30 21:24:46;;;;;;;3.88;1.45;;;;;;;-143.85;100.00;70650.75;5051852;28;20037;-88
2022/09/30 21:27:12;;;;;;;1.00;0.90;;;;;;;-143.85;100.00;70650.75;5042559;28;20560;-88
2022/09/30 21:29:38;;;;;;;2.65;1.75;;;;;;;-143.85;100.00;70650.75;5046777;28;20052;-89
2022/09/30 21:32:03;;;;;;;2.00;1.48;;;;;;;-143.85;100.00;70650.75;5054440;28;20017;-89
2022/09/30 21:34:30;;;;;;;1.58;1.27;;;;;;;-143.85;100.00;70650.75;5055617;28;20047;-89
2022/09/30 21:36:55;;;;;;;1.42;1.30;;;;;;;-143.85;100.00;70650.75;5049208;28;20028;-91
2022/09/30 21:39:21;;;;;;;4.93;2.20;;;;;;;-143.85;100.00;70650.75;5031633;28;20037;-89
2022/09/30 21:41:46;;;;;;;1.83;0.95;;;;;;;-143.85;100.00;70650.75;5035901;28;20055;-89
2022/09/30 21:44:12;;;;;;;4.13;1.25;;;;;;;-143.85;100.00;70650.75;5032118;28;20029;-89
2022/09/30 21:46:38;;;;;;;0.93;0.80;;;;;;;-143.85;100.00;70650.75;5022215;28;20548;-89
2022/09/30 21:49:13;;;;;;;4.40;1.23;;;;;;;-143.85;100.00;70650.75;5043892;28;20033;-89
2022/09/30 21:51:38;;;;;;;1.17;1.05;;;;;;;-143.85;100.00;70650.75;5023485;28;20077;-89
2022/09/30 21:54:04;;;;;;;1.23;1.08;;;;;;;-143.85;100.00;70650.75;5024781;28;20029;-89
2022/09/30 21:56:29;;;;;;;2.40;1.20;;;;;;;-143.85;100.00;70650.75;5033895;28;20056;-91
2022/09/30 21:58:55;;;;;;;1.63;1.40;;;;;;;-143.85;100.00;70650.75;5030140;28;20057;-92
2022/09/30 22:01:21;;;;;;;6.63;1.88;;;;;;;-143.85;100.00;70650.75;5035740;28;20052;-89
2022/09/30 22:03:47;;;;;;;1.70;1.60;;;;;;;-143.85;100.00;70650.75;5024689;28;20405;-90
2022/09/30 22:06:12;;;;;;;2.67;1.52;;;;;;;-143.85;100.00;70650.75;5033935;28;20037;-88
2022/09/30 22:08:39;;;;;;;1.10;1.00;;;;;;;-143.85;100.00;70650.75;5047208;28;20402;-89
2022/09/30 22:11:10;;;;;;;3.38;1.45;;;;;;;-143.85;100.00;70650.75;5023734;28;20489;-88
2022/09/30 22:13:39;;;;;;;1.70;1.40;;;;;;;-143.85;100.00;70650.75;5019704;28;20026;-88
2022/09/30 22:16:05;;;;;;;3.40;2.00;;;;;;;-143.85;100.00;70650.75;5031403;28;20036;-89
2022/09/30 22:18:31;;;;;;;3.03;1.48;;;;;;;-143.85;100.00;70650.75;5039098;28;20045;-89
2022/09/30 22:21:02;;;;;;;2.13;1.58;;;;;;;-143.85;100.00;70650.75;5016056;28;20112;-88
2022/09/30 22:23:28;;;;;;;7.85;1.30;;;;;;;-143.85;100.00;70650.75;5017115;28;20033;-89
2022/09/30 22:25:55;;;;;;;2.33;1.75;;;;;;;-143.85;100.00;70650.75;5025902;28;20029;-88
2022/09/30 22:28:21;;;;;;;2.05;1.40;;;;;;;-143.85;100.00;70650.75;5030224;28;20048;-89
2022/09/30 22:30:46;;;;;;;2.80;1.67;;;;;;;-143.85;100.00;70650.75;5028376;28;20116;-91
2022/09/30 22:38:39;;;;;;;1.88;1.42;;;;;;;-143.85;100.00;70650.75;5023424;28;20035;-88
2022/09/30 22:41:04;;;;;;;1.85;1.20;;;;;;;-143.85;100.00;70650.75;5025182;28;20120;-89
2022/09/30 22:43:31;;;;;;;2.03;1.45;;;;;;;-143.85;100.00;70650.75;5030341;28;20055;-89
2022/09/30 22:46:04;;;;;;;1.60;1.50;;;;;;;-143.85;100.00;70650.75;5023963;28;20090;-89
2022/09/30 22:48:30;;;;;;;4.13;1.50;;;;;;;-143.85;100.00;70650.75;5025046;28;20030;-89
2022/09/30 22:50:57;;;;;;;2.50;1.52;;;;;;;-143.85;100.00;70650.75;5018844;28;20022;-88
2022/09/30 22:53:23;;;;;;;1.33;1.20;;;;;;;-143.85;100.00;70650.75;5023812;28;20500;-89
2022/09/30 22:55:49;;;;;;;1.73;1.30;;;;;;;-143.85;100.00;70650.75;5028058;28;20053;-89
2022/09/30 22:58:14;;;;;;;1.48;1.30;;;;;;;-143.85;100.00;70650.75;5048208;28;20029;-91
2022/09/30 23:00:39;;;;;;;2.13;1.63;;;;;;;-143.85;100.00;70650.75;5020479;28;20084;-90
2022/09/30 23:03:07;;;;;;;1.30;1.20;;;;;;;-143.85;100.00;70650.75;5030409;28;20018;-90
2022/09/30 23:05:35;;;;;;;1.80;1.40;;;;;;;-143.85;100.00;70650.75;5022800;28;20033;-89
2022/09/30 23:08:02;;;;;;;1.92;1.60;;;;;;;-143.85;100.00;70650.75;5037342;28;20071;-90
2022/09/30 23:10:28;;;;;;;1.52;1.42;;;;;;;-143.85;100.00;70650.75;5035310;28;20041;-90
2022/09/30 23:12:53;;;;;;;2.67;1.48;;;;;;;-143.85;100.00;70650.75;5032158;28;20025;-90
2022/09/30 23:15:19;;;;;;;1.60;1.45;;;;;;;-143.85;100.00;70650.75;5038914;28;20041;-89
2022/09/30 23:17:44;;;;;;;2.00;1.50;;;;;;;-143.85;100.00;70650.75;5034668;28;20083;-90
2022/09/30 23:20:10;;;;;;;3.03;1.92;;;;;;;-143.85;100.00;70650.75;5023210;28;20421;-90
2022/09/30 23:22:35;;;;;;;4.30;1.90;;;;;;;-143.85;100.00;70650.75;5025967;28;20028;-90
2022/09/30 23:25:01;;;;;;;3.42;1.60;;;;;;;-143.85;100.00;70650.75;5034009;28;20554;-89
2022/09/30 23:27:27;;;;;;;2.42;2.17;;;;;;;-143.85;100.00;70650.75;5049193;28;20032;-89
2022/09/30 23:29:52;;;;;;;2.35;1.55;;;;;;;-143.85;100.00;70650.75;5026697;28;20034;-89
2022/09/30 23:32:18;;;;;;;2.05;1.55;;;;;;;-143.85;100.00;70650.75;5032628;28;20030;-90
2022/09/30 23:34:43;;;;;;;1.48;1.15;;;;;;;-143.85;100.00;70650.75;5032504;28;20116;-88
2022/09/30 23:37:08;;;;;;;3.13;1.40;;;;;;;-143.85;100.00;70650.75;5039171;28;20486;-89
2022/09/30 23:39:34;;;;;;;2.28;1.50;;;;;;;-143.85;100.00;70650.75;5039753;28;20472;-89
2022/09/30 23:41:59;;;;;;;2.45;1.77;;;;;;;-143.85;100.00;70650.75;5033645;28;20023;-89
2022/09/30 23:44:27;;;;;;;1.50;1.35;;;;;;;-143.85;100.00;70650.75;5052204;28;20492;-90
2022/09/30 23:49:37;;;;;;;2.15;1.80;;;;;;;-143.85;100.00;70650.75;5033274;28;20040;-93
2022/09/30 23:52:05;;;;;;;1.65;1.52;;;;;;;-143.85;100.00;70650.75;5014942;28;20022;-93
2022/09/30 23:54:30;;;;;;;1.80;1.57;;;;;;;-143.85;100.00;70650.75;5038251;28;20026;-92
2022/09/30 23:56:55;;;;;;;3.97;1.75;;;;;;;-143.85;100.00;70650.75;5031749;28;20076;-92
2022/09/30 23:59:21;;;;;;;1.70;1.30;;;;;;;-143.85;100.00;70650.75;5032296;28;20025;-90
